sensor_id;sensor_type;location;lat;lon;timestamp;P1;durP1;ratioP1;P2;durP2;ratioP2
71947;SDS011;63257;55.082;38.772;2023-05-29T00:02:14;8.07;;;3.57;;
71947;SDS011;63257;55.082;38.772;2023-05-29T00:04:40;7.70;;;3.88;;
71947;SDS011;63257;55.082;38.772;2023-05-29T00:07:06;8.60;;;3.50;;
71947;SDS011;63257;55.082;38.772;2023-05-29T00:09:32;8.60;;;3.50;;
71947;SDS011;63257;55.082;38.772;2023-05-29T00:11:57;8.63;;;3.50;;
71947;SDS011;63257;55.082;38.772;2023-05-29T00:14:23;9.63;;;3.70;;
71947;SDS011;63257;55.082;38.772;2023-05-29T00:16:49;7.80;;;3.50;;
71947;SDS011;63257;55.082;38.772;2023-05-29T00:19:16;9.00;;;4.20;;
71947;SDS011;63257;55.082;38.772;2023-05-29T00:21:42;6.80;;;3.45;;
71947;SDS011;63257;55.082;38.772;2023-05-29T00:24:08;7.28;;;3.67;;
71947;SDS011;63257;55.082;38.772;2023-05-29T00:26:34;8.20;;;3.60;;
71947;SDS011;63257;55.082;38.772;2023-05-29T00:29:01;13.00;;;3.97;;
71947;SDS011;63257;55.082;38.772;2023-05-29T00:31:27;7.82;;;3.33;;
71947;SDS011;63257;55.082;38.772;2023-05-29T00:33:53;10.40;;;3.80;;
71947;SDS011;63257;55.082;38.772;2023-05-29T00:36:19;9.48;;;3.72;;
71947;SDS011;63257;55.082;38.772;2023-05-29T00:38:45;7.70;;;3.93;;
71947;SDS011;63257;55.082;38.772;2023-05-29T00:41:14;9.55;;;3.65;;
71947;SDS011;63257;55.082;38.772;2023-05-29T00:43:41;8.23;;;3.63;;
71947;SDS011;63257;55.082;38.772;2023-05-29T00:46:08;7.55;;;3.55;;
71947;SDS011;63257;55.082;38.772;2023-05-29T00:48:35;9.07;;;3.60;;
71947;SDS011;63257;55.082;38.772;2023-05-29T00:51:01;7.70;;;3.40;;
71947;SDS011;63257;55.082;38.772;2023-05-29T00:53:27;7.07;;;3.22;;
71947;SDS011;63257;55.082;38.772;2023-05-29T00:55:53;7.33;;;3.53;;
71947;SDS011;63257;55.082;38.772;2023-05-29T00:58:20;7.38;;;3.90;;
71947;SDS011;63257;55.082;38.772;2023-05-29T01:00:46;6.95;;;3.60;;
71947;SDS011;63257;55.082;38.772;2023-05-29T01:03:12;9.05;;;3.80;;
71947;SDS011;63257;55.082;38.772;2023-05-29T01:05:43;6.90;;;3.83;;
71947;SDS011;63257;55.082;38.772;2023-05-29T01:08:09;9.02;;;3.78;;
71947;SDS011;63257;55.082;38.772;2023-05-29T01:10:35;9.27;;;3.85;;
71947;SDS011;63257;55.082;38.772;2023-05-29T01:13:17;8.17;;;3.97;;
71947;SDS011;63257;55.082;38.772;2023-05-29T01:15:58;9.18;;;3.63;;
71947;SDS011;63257;55.082;38.772;2023-05-29T01:18:51;8.73;;;3.67;;
71947;SDS011;63257;55.082;38.772;2023-05-29T01:24:14;7.90;;;3.53;;
71947;SDS011;63257;55.082;38.772;2023-05-29T01:27:05;7.80;;;3.38;;
71947;SDS011;63257;55.082;38.772;2023-05-29T01:29:35;8.52;;;3.28;;
71947;SDS011;63257;55.082;38.772;2023-05-29T01:32:05;8.03;;;3.53;;
71947;SDS011;63257;55.082;38.772;2023-05-29T01:34:32;7.18;;;3.20;;
71947;SDS011;63257;55.082;38.772;2023-05-29T01:36:58;6.00;;;2.90;;
71947;SDS011;63257;55.082;38.772;2023-05-29T01:39:23;6.47;;;3.20;;
71947;SDS011;63257;55.082;38.772;2023-05-29T01:41:51;8.18;;;3.45;;
71947;SDS011;63257;55.082;38.772;2023-05-29T01:44:18;6.70;;;3.30;;
71947;SDS011;63257;55.082;38.772;2023-05-29T01:46:46;9.83;;;3.83;;
71947;SDS011;63257;55.082;38.772;2023-05-29T01:49:13;8.95;;;3.78;;
71947;SDS011;63257;55.082;38.772;2023-05-29T01:51:40;6.63;;;3.25;;
71947;SDS011;63257;55.082;38.772;2023-05-29T01:54:07;8.48;;;3.30;;
71947;SDS011;63257;55.082;38.772;2023-05-29T01:56:33;7.30;;;3.27;;
71947;SDS011;63257;55.082;38.772;2023-05-29T01:59:01;6.80;;;3.00;;
71947;SDS011;63257;55.082;38.772;2023-05-29T02:01:29;7.22;;;3.00;;
71947;SDS011;63257;55.082;38.772;2023-05-29T02:03:56;7.80;;;3.38;;
71947;SDS011;63257;55.082;38.772;2023-05-29T02:06:22;6.50;;;3.13;;
71947;SDS011;63257;55.082;38.772;2023-05-29T02:08:48;7.32;;;3.08;;
71947;SDS011;63257;55.082;38.772;2023-05-29T02:11:14;5.85;;;3.10;;
71947;SDS011;63257;55.082;38.772;2023-05-29T02:13:41;6.33;;;2.90;;
71947;SDS011;63257;55.082;38.772;2023-05-29T02:16:07;6.22;;;3.15;;
71947;SDS011;63257;55.082;38.772;2023-05-29T02:18:33;8.93;;;3.15;;
71947;SDS011;63257;55.082;38.772;2023-05-29T02:21:02;7.87;;;3.13;;
71947;SDS011;63257;55.082;38.772;2023-05-29T02:23:28;9.60;;;2.80;;
71947;SDS011;63257;55.082;38.772;2023-05-29T02:25:54;5.70;;;2.75;;
71947;SDS011;63257;55.082;38.772;2023-05-29T02:28:20;6.72;;;2.88;;
71947;SDS011;63257;55.082;38.772;2023-05-29T02:30:46;6.53;;;2.83;;
71947;SDS011;63257;55.082;38.772;2023-05-29T02:33:12;5.70;;;3.20;;
71947;SDS011;63257;55.082;38.772;2023-05-29T02:35:38;7.03;;;3.00;;
71947;SDS011;63257;55.082;38.772;2023-05-29T02:38:04;6.68;;;2.72;;
71947;SDS011;63257;55.082;38.772;2023-05-29T02:40:30;6.10;;;3.05;;
71947;SDS011;63257;55.082;38.772;2023-05-29T02:42:58;5.00;;;2.70;;
71947;SDS011;63257;55.082;38.772;2023-05-29T02:45:24;4.82;;;2.40;;
71947;SDS011;63257;55.082;38.772;2023-05-29T02:47:50;5.50;;;2.72;;
71947;SDS011;63257;55.082;38.772;2023-05-29T02:50:16;6.63;;;2.73;;
71947;SDS011;63257;55.082;38.772;2023-05-29T02:52:42;5.68;;;2.15;;
71947;SDS011;63257;55.082;38.772;2023-05-29T02:55:08;5.93;;;2.95;;
71947;SDS011;63257;55.082;38.772;2023-05-29T02:57:34;6.93;;;3.40;;
71947;SDS011;63257;55.082;38.772;2023-05-29T02:59:59;5.97;;;2.63;;
71947;SDS011;63257;55.082;38.772;2023-05-29T03:02:26;6.18;;;2.90;;
71947;SDS011;63257;55.082;38.772;2023-05-29T03:04:52;6.75;;;2.70;;
71947;SDS011;63257;55.082;38.772;2023-05-29T03:07:19;5.32;;;2.40;;
71947;SDS011;63257;55.082;38.772;2023-05-29T03:09:45;5.30;;;2.63;;
71947;SDS011;63257;55.082;38.772;2023-05-29T03:12:11;5.72;;;3.13;;
71947;SDS011;63257;55.082;38.772;2023-05-29T03:14:38;5.80;;;2.63;;
71947;SDS011;63257;55.082;38.772;2023-05-29T03:17:09;5.50;;;2.40;;
71947;SDS011;63257;55.082;38.772;2023-05-29T03:19:35;5.80;;;2.60;;
71947;SDS011;63257;55.082;38.772;2023-05-29T03:22:01;7.35;;;2.85;;
71947;SDS011;63257;55.082;38.772;2023-05-29T03:24:28;25.77;;;11.77;;
71947;SDS011;63257;55.082;38.772;2023-05-29T03:26:54;6.68;;;3.40;;
71947;SDS011;63257;55.082;38.772;2023-05-29T03:29:22;9.40;;;2.90;;
71947;SDS011;63257;55.082;38.772;2023-05-29T03:31:48;6.80;;;2.85;;
71947;SDS011;63257;55.082;38.772;2023-05-29T03:34:20;5.15;;;2.60;;
71947;SDS011;63257;55.082;38.772;2023-05-29T03:36:55;6.33;;;2.50;;
71947;SDS011;63257;55.082;38.772;2023-05-29T03:39:23;9.65;;;2.33;;
71947;SDS011;63257;55.082;38.772;2023-05-29T03:41:49;5.50;;;2.30;;
71947;SDS011;63257;55.082;38.772;2023-05-29T03:44:17;7.40;;;3.20;;
71947;SDS011;63257;55.082;38.772;2023-05-29T03:46:43;5.67;;;2.77;;
71947;SDS011;63257;55.082;38.772;2023-05-29T03:49:13;6.90;;;3.00;;
71947;SDS011;63257;55.082;38.772;2023-05-29T03:51:40;6.65;;;2.80;;
71947;SDS011;63257;55.082;38.772;2023-05-29T03:54:06;7.75;;;2.70;;
71947;SDS011;63257;55.082;38.772;2023-05-29T03:56:33;6.53;;;2.40;;
71947;SDS011;63257;55.082;38.772;2023-05-29T03:59:00;6.45;;;2.30;;
71947;SDS011;63257;55.082;38.772;2023-05-29T04:01:26;7.15;;;2.97;;
71947;SDS011;63257;55.082;38.772;2023-05-29T04:03:53;5.63;;;2.30;;
71947;SDS011;63257;55.082;38.772;2023-05-29T04:06:19;6.47;;;2.83;;
71947;SDS011;63257;55.082;38.772;2023-05-29T04:08:45;6.57;;;2.28;;
71947;SDS011;63257;55.082;38.772;2023-05-29T04:11:14;5.90;;;2.42;;
71947;SDS011;63257;55.082;38.772;2023-05-29T04:13:40;6.50;;;2.90;;
71947;SDS011;63257;55.082;38.772;2023-05-29T04:16:07;5.43;;;2.80;;
71947;SDS011;63257;55.082;38.772;2023-05-29T04:18:33;6.97;;;2.60;;
71947;SDS011;63257;55.082;38.772;2023-05-29T04:20:59;5.20;;;2.20;;
71947;SDS011;63257;55.082;38.772;2023-05-29T04:23:26;5.57;;;2.50;;
71947;SDS011;63257;55.082;38.772;2023-05-29T04:25:52;5.67;;;2.33;;
71947;SDS011;63257;55.082;38.772;2023-05-29T04:28:22;6.35;;;2.50;;
71947;SDS011;63257;55.082;38.772;2023-05-29T04:34:55;6.40;;;2.20;;
71947;SDS011;63257;55.082;38.772;2023-05-29T04:37:21;6.93;;;2.23;;
71947;SDS011;63257;55.082;38.772;2023-05-29T04:39:55;9.18;;;2.38;;
71947;SDS011;63257;55.082;38.772;2023-05-29T04:42:28;5.18;;;2.22;;
71947;SDS011;63257;55.082;38.772;2023-05-29T04:44:59;5.30;;;2.30;;
71947;SDS011;63257;55.082;38.772;2023-05-29T04:47:30;5.57;;;2.37;;
71947;SDS011;63257;55.082;38.772;2023-05-29T04:50:01;5.05;;;2.20;;
71947;SDS011;63257;55.082;38.772;2023-05-29T04:52:31;5.78;;;2.10;;
71947;SDS011;63257;55.082;38.772;2023-05-29T04:54:57;5.78;;;2.22;;
71947;SDS011;63257;55.082;38.772;2023-05-29T04:57:23;5.05;;;2.00;;
71947;SDS011;63257;55.082;38.772;2023-05-29T04:59:49;4.75;;;1.90;;
71947;SDS011;63257;55.082;38.772;2023-05-29T05:02:15;4.07;;;1.88;;
71947;SDS011;63257;55.082;38.772;2023-05-29T05:04:41;5.47;;;1.98;;
71947;SDS011;63257;55.082;38.772;2023-05-29T05:07:08;4.73;;;1.80;;
71947;SDS011;63257;55.082;38.772;2023-05-29T05:09:38;5.40;;;2.00;;
71947;SDS011;63257;55.082;38.772;2023-05-29T05:12:04;3.88;;;1.80;;
71947;SDS011;63257;55.082;38.772;2023-05-29T05:14:31;4.75;;;1.92;;
71947;SDS011;63257;55.082;38.772;2023-05-29T05:16:57;4.97;;;1.80;;
71947;SDS011;63257;55.082;38.772;2023-05-29T05:19:23;4.88;;;1.90;;
71947;SDS011;63257;55.082;38.772;2023-05-29T05:21:49;6.40;;;2.00;;
71947;SDS011;63257;55.082;38.772;2023-05-29T05:24:20;5.00;;;2.03;;
71947;SDS011;63257;55.082;38.772;2023-05-29T05:26:46;5.80;;;2.28;;
71947;SDS011;63257;55.082;38.772;2023-05-29T05:29:15;5.43;;;2.03;;
71947;SDS011;63257;55.082;38.772;2023-05-29T05:31:41;6.95;;;2.60;;
71947;SDS011;63257;55.082;38.772;2023-05-29T05:34:07;5.28;;;2.28;;
71947;SDS011;63257;55.082;38.772;2023-05-29T05:36:34;5.03;;;2.00;;
71947;SDS011;63257;55.082;38.772;2023-05-29T05:39:09;4.20;;;2.17;;
71947;SDS011;63257;55.082;38.772;2023-05-29T05:41:36;4.87;;;2.33;;
71947;SDS011;63257;55.082;38.772;2023-05-29T05:44:03;5.15;;;2.20;;
71947;SDS011;63257;55.082;38.772;2023-05-29T05:46:52;6.07;;;2.28;;
71947;SDS011;63257;55.082;38.772;2023-05-29T05:49:19;5.50;;;2.10;;
71947;SDS011;63257;55.082;38.772;2023-05-29T05:51:45;4.80;;;2.10;;
71947;SDS011;63257;55.082;38.772;2023-05-29T05:54:11;4.77;;;2.03;;
71947;SDS011;63257;55.082;38.772;2023-05-29T05:56:37;5.30;;;2.67;;
71947;SDS011;63257;55.082;38.772;2023-05-29T05:59:06;4.65;;;2.30;;
71947;SDS011;63257;55.082;38.772;2023-05-29T06:01:32;4.15;;;2.20;;
71947;SDS011;63257;55.082;38.772;2023-05-29T06:03:58;6.60;;;2.40;;
71947;SDS011;63257;55.082;38.772;2023-05-29T06:06:24;6.13;;;2.40;;
71947;SDS011;63257;55.082;38.772;2023-05-29T06:08:50;4.75;;;2.30;;
71947;SDS011;63257;55.082;38.772;2023-05-29T06:11:17;5.15;;;2.30;;
71947;SDS011;63257;55.082;38.772;2023-05-29T06:13:45;6.53;;;2.33;;
71947;SDS011;63257;55.082;38.772;2023-05-29T06:16:22;5.40;;;2.22;;
71947;SDS011;63257;55.082;38.772;2023-05-29T06:18:48;5.18;;;2.10;;
71947;SDS011;63257;55.082;38.772;2023-05-29T06:21:16;7.07;;;2.25;;
71947;SDS011;63257;55.082;38.772;2023-05-29T06:23:50;4.88;;;1.90;;
71947;SDS011;63257;55.082;38.772;2023-05-29T06:26:16;4.37;;;2.00;;
71947;SDS011;63257;55.082;38.772;2023-05-29T06:28:42;9.40;;;2.35;;
71947;SDS011;63257;55.082;38.772;2023-05-29T06:31:08;4.10;;;2.00;;
71947;SDS011;63257;55.082;38.772;2023-05-29T06:33:35;5.22;;;2.10;;
71947;SDS011;63257;55.082;38.772;2023-05-29T06:36:01;4.20;;;1.90;;
71947;SDS011;63257;55.082;38.772;2023-05-29T06:38:27;5.22;;;2.03;;
71947;SDS011;63257;55.082;38.772;2023-05-29T06:40:56;3.97;;;1.98;;
71947;SDS011;63257;55.082;38.772;2023-05-29T06:43:22;5.37;;;2.00;;
71947;SDS011;63257;55.082;38.772;2023-05-29T06:45:48;5.20;;;2.08;;
71947;SDS011;63257;55.082;38.772;2023-05-29T06:48:14;5.00;;;1.95;;
71947;SDS011;63257;55.082;38.772;2023-05-29T06:50:41;4.00;;;1.60;;
71947;SDS011;63257;55.082;38.772;2023-05-29T06:53:36;5.63;;;2.00;;
71947;SDS011;63257;55.082;38.772;2023-05-29T06:56:04;4.10;;;1.80;;
71947;SDS011;63257;55.082;38.772;2023-05-29T06:58:32;3.67;;;1.73;;
71947;SDS011;63257;55.082;38.772;2023-05-29T07:00:58;4.63;;;1.80;;
71947;SDS011;63257;55.082;38.772;2023-05-29T07:03:31;3.88;;;1.92;;
71947;SDS011;63257;55.082;38.772;2023-05-29T07:05:57;6.47;;;2.10;;
71947;SDS011;63257;55.082;38.772;2023-05-29T07:08:24;3.95;;;2.00;;
71947;SDS011;63257;55.082;38.772;2023-05-29T07:10:51;4.85;;;1.80;;
71947;SDS011;63257;55.082;38.772;2023-05-29T07:13:20;4.55;;;2.08;;
71947;SDS011;63257;55.082;38.772;2023-05-29T07:15:47;5.07;;;2.05;;
71947;SDS011;63257;55.082;38.772;2023-05-29T07:18:14;4.60;;;1.90;;
71947;SDS011;63257;55.082;38.772;2023-05-29T07:20:41;4.93;;;1.83;;
71947;SDS011;63257;55.082;38.772;2023-05-29T07:23:07;5.28;;;2.03;;
71947;SDS011;63257;55.082;38.772;2023-05-29T07:25:33;4.68;;;2.00;;
71947;SDS011;63257;55.082;38.772;2023-05-29T07:27:59;4.07;;;1.87;;
71947;SDS011;63257;55.082;38.772;2023-05-29T07:30:25;5.50;;;2.17;;
71947;SDS011;63257;55.082;38.772;2023-05-29T07:32:53;4.80;;;2.17;;
71947;SDS011;63257;55.082;38.772;2023-05-29T07:35:19;4.97;;;1.58;;
71947;SDS011;63257;55.082;38.772;2023-05-29T07:37:47;5.00;;;2.00;;
71947;SDS011;63257;55.082;38.772;2023-05-29T07:40:15;3.53;;;1.67;;
71947;SDS011;63257;55.082;38.772;2023-05-29T07:42:56;6.20;;;1.58;;
71947;SDS011;63257;55.082;38.772;2023-05-29T07:45:25;4.20;;;1.75;;
71947;SDS011;63257;55.082;38.772;2023-05-29T07:47:51;4.30;;;1.80;;
71947;SDS011;63257;55.082;38.772;2023-05-29T07:50:17;3.90;;;1.80;;
71947;SDS011;63257;55.082;38.772;2023-05-29T07:56:04;4.80;;;1.60;;
71947;SDS011;63257;55.082;38.772;2023-05-29T07:58:31;5.45;;;2.00;;
71947;SDS011;63257;55.082;38.772;2023-05-29T08:00:59;4.00;;;1.80;;
71947;SDS011;63257;55.082;38.772;2023-05-29T08:03:26;5.78;;;2.30;;
71947;SDS011;63257;55.082;38.772;2023-05-29T08:06:19;6.63;;;3.25;;
71947;SDS011;63257;55.082;38.772;2023-05-29T08:08:45;4.53;;;2.00;;
71947;SDS011;63257;55.082;38.772;2023-05-29T08:11:11;4.15;;;2.03;;
71947;SDS011;63257;55.082;38.772;2023-05-29T08:13:37;4.53;;;2.10;;
71947;SDS011;63257;55.082;38.772;2023-05-29T08:16:03;5.05;;;1.90;;
71947;SDS011;63257;55.082;38.772;2023-05-29T08:18:30;5.50;;;1.95;;
71947;SDS011;63257;55.082;38.772;2023-05-29T08:25:16;5.25;;;1.80;;
71947;SDS011;63257;55.082;38.772;2023-05-29T08:27:42;5.47;;;2.05;;
71947;SDS011;63257;55.082;38.772;2023-05-29T08:30:08;4.03;;;2.05;;
71947;SDS011;63257;55.082;38.772;2023-05-29T08:32:35;4.07;;;1.83;;
71947;SDS011;63257;55.082;38.772;2023-05-29T08:35:01;4.90;;;1.80;;
71947;SDS011;63257;55.082;38.772;2023-05-29T08:37:30;4.95;;;1.95;;
71947;SDS011;63257;55.082;38.772;2023-05-29T08:39:56;4.20;;;1.90;;
71947;SDS011;63257;55.082;38.772;2023-05-29T08:42:26;4.15;;;1.90;;
71947;SDS011;63257;55.082;38.772;2023-05-29T08:44:57;3.88;;;1.70;;
71947;SDS011;63257;55.082;38.772;2023-05-29T08:47:32;3.88;;;1.95;;
71947;SDS011;63257;55.082;38.772;2023-05-29T08:50:00;3.80;;;1.80;;
71947;SDS011;63257;55.082;38.772;2023-05-29T08:52:33;4.05;;;1.83;;
71947;SDS011;63257;55.082;38.772;2023-05-29T08:55:02;3.70;;;1.93;;
71947;SDS011;63257;55.082;38.772;2023-05-29T08:57:31;4.07;;;1.92;;
71947;SDS011;63257;55.082;38.772;2023-05-29T08:59:59;3.70;;;1.90;;
71947;SDS011;63257;55.082;38.772;2023-05-29T09:02:26;5.10;;;2.22;;
71947;SDS011;63257;55.082;38.772;2023-05-29T09:04:52;4.10;;;2.10;;
71947;SDS011;63257;55.082;38.772;2023-05-29T09:07:19;6.77;;;2.20;;
71947;SDS011;63257;55.082;38.772;2023-05-29T09:09:47;5.18;;;1.80;;
71947;SDS011;63257;55.082;38.772;2023-05-29T09:12:14;3.55;;;1.85;;
71947;SDS011;63257;55.082;38.772;2023-05-29T09:14:42;3.80;;;1.60;;
71947;SDS011;63257;55.082;38.772;2023-05-29T09:17:10;4.15;;;1.67;;
71947;SDS011;63257;55.082;38.772;2023-05-29T09:19:38;4.00;;;1.90;;
71947;SDS011;63257;55.082;38.772;2023-05-29T09:22:07;4.45;;;1.90;;
71947;SDS011;63257;55.082;38.772;2023-05-29T09:24:36;3.83;;;1.98;;
71947;SDS011;63257;55.082;38.772;2023-05-29T09:27:04;3.90;;;1.85;;
71947;SDS011;63257;55.082;38.772;2023-05-29T09:29:33;4.15;;;1.80;;
71947;SDS011;63257;55.082;38.772;2023-05-29T09:32:07;4.60;;;2.13;;
71947;SDS011;63257;55.082;38.772;2023-05-29T09:34:34;3.60;;;1.80;;
71947;SDS011;63257;55.082;38.772;2023-05-29T09:37:02;3.85;;;1.77;;
71947;SDS011;63257;55.082;38.772;2023-05-29T09:39:34;4.43;;;1.98;;
71947;SDS011;63257;55.082;38.772;2023-05-29T09:42:10;4.50;;;1.90;;
71947;SDS011;63257;55.082;38.772;2023-05-29T09:48:41;4.22;;;2.22;;
71947;SDS011;63257;55.082;38.772;2023-05-29T09:51:18;5.15;;;2.10;;
71947;SDS011;63257;55.082;38.772;2023-05-29T09:53:45;3.90;;;2.10;;
71947;SDS011;63257;55.082;38.772;2023-05-29T09:56:12;6.13;;;3.20;;
71947;SDS011;63257;55.082;38.772;2023-05-29T09:58:41;4.63;;;2.10;;
71947;SDS011;63257;55.082;38.772;2023-05-29T10:01:12;4.45;;;2.03;;
71947;SDS011;63257;55.082;38.772;2023-05-29T10:03:38;4.35;;;2.20;;
71947;SDS011;63257;55.082;38.772;2023-05-29T10:06:05;4.57;;;1.88;;
71947;SDS011;63257;55.082;38.772;2023-05-29T10:08:34;5.15;;;2.05;;
71947;SDS011;63257;55.082;38.772;2023-05-29T10:11:03;3.20;;;1.70;;
71947;SDS011;63257;55.082;38.772;2023-05-29T10:13:35;5.40;;;2.40;;
71947;SDS011;63257;55.082;38.772;2023-05-29T10:16:06;4.18;;;1.98;;
71947;SDS011;63257;55.082;38.772;2023-05-29T10:18:37;5.25;;;2.08;;
71947;SDS011;63257;55.082;38.772;2023-05-29T10:21:05;7.70;;;2.08;;
71947;SDS011;63257;55.082;38.772;2023-05-29T10:23:34;4.70;;;1.87;;
71947;SDS011;63257;55.082;38.772;2023-05-29T10:26:06;12.25;;;2.20;;
71947;SDS011;63257;55.082;38.772;2023-05-29T10:28:39;4.70;;;2.10;;
71947;SDS011;63257;55.082;38.772;2023-05-29T10:31:09;5.13;;;2.03;;
71947;SDS011;63257;55.082;38.772;2023-05-29T10:36:38;5.40;;;2.10;;
71947;SDS011;63257;55.082;38.772;2023-05-29T10:39:15;5.05;;;2.15;;
71947;SDS011;63257;55.082;38.772;2023-05-29T10:41:41;4.32;;;2.10;;
71947;SDS011;63257;55.082;38.772;2023-05-29T10:47:06;5.13;;;2.47;;
71947;SDS011;63257;55.082;38.772;2023-05-29T10:49:34;4.43;;;2.30;;
71947;SDS011;63257;55.082;38.772;2023-05-29T10:52:00;5.78;;;2.20;;
71947;SDS011;63257;55.082;38.772;2023-05-29T10:54:29;4.32;;;2.25;;
71947;SDS011;63257;55.082;38.772;2023-05-29T10:57:06;4.50;;;2.03;;
71947;SDS011;63257;55.082;38.772;2023-05-29T10:59:37;4.18;;;2.30;;
71947;SDS011;63257;55.082;38.772;2023-05-29T11:02:06;4.20;;;2.20;;
71947;SDS011;63257;55.082;38.772;2023-05-29T11:04:32;6.25;;;2.15;;
71947;SDS011;63257;55.082;38.772;2023-05-29T11:07:00;4.57;;;2.60;;
71947;SDS011;63257;55.082;38.772;2023-05-29T11:12:12;5.23;;;2.70;;
71947;SDS011;63257;55.082;38.772;2023-05-29T11:18:58;4.40;;;2.80;;
71947;SDS011;63257;55.082;38.772;2023-05-29T11:25:40;4.70;;;3.08;;
71947;SDS011;63257;55.082;38.772;2023-05-29T11:28:09;4.20;;;3.10;;
71947;SDS011;63257;55.082;38.772;2023-05-29T11:33:24;5.35;;;3.10;;
71947;SDS011;63257;55.082;38.772;2023-05-29T11:35:58;5.07;;;2.80;;
71947;SDS011;63257;55.082;38.772;2023-05-29T11:38:27;4.68;;;3.20;;
71947;SDS011;63257;55.082;38.772;2023-05-29T11:40:53;5.23;;;2.80;;
71947;SDS011;63257;55.082;38.772;2023-05-29T11:43:21;5.20;;;2.85;;
71947;SDS011;63257;55.082;38.772;2023-05-29T11:45:47;4.82;;;3.20;;
71947;SDS011;63257;55.082;38.772;2023-05-29T11:48:13;4.40;;;3.08;;
71947;SDS011;63257;55.082;38.772;2023-05-29T11:53:35;4.45;;;3.25;;
71947;SDS011;63257;55.082;38.772;2023-05-29T12:00:38;4.65;;;3.40;;
71947;SDS011;63257;55.082;38.772;2023-05-29T12:03:05;6.10;;;3.40;;
71947;SDS011;63257;55.082;38.772;2023-05-29T12:09:51;8.60;;;3.33;;
71947;SDS011;63257;55.082;38.772;2023-05-29T12:12:26;5.07;;;3.50;;
71947;SDS011;63257;55.082;38.772;2023-05-29T12:18:19;5.00;;;3.28;;
71947;SDS011;63257;55.082;38.772;2023-05-29T12:20:45;5.13;;;3.17;;
71947;SDS011;63257;55.082;38.772;2023-05-29T12:23:11;4.70;;;3.90;;
71947;SDS011;63257;55.082;38.772;2023-05-29T12:25:37;4.22;;;3.20;;
71947;SDS011;63257;55.082;38.772;2023-05-29T12:28:03;4.20;;;3.53;;
71947;SDS011;63257;55.082;38.772;2023-05-29T12:30:30;4.85;;;3.75;;
71947;SDS011;63257;55.082;38.772;2023-05-29T12:32:56;4.47;;;3.70;;
71947;SDS011;63257;55.082;38.772;2023-05-29T12:38:53;5.93;;;4.57;;
71947;SDS011;63257;55.082;38.772;2023-05-29T12:43:56;5.88;;;3.75;;
71947;SDS011;63257;55.082;38.772;2023-05-29T12:46:26;5.68;;;3.53;;
71947;SDS011;63257;55.082;38.772;2023-05-29T12:48:53;4.25;;;2.70;;
71947;SDS011;63257;55.082;38.772;2023-05-29T12:55:34;4.88;;;2.78;;
71947;SDS011;63257;55.082;38.772;2023-05-29T12:58:06;4.20;;;2.35;;
71947;SDS011;63257;55.082;38.772;2023-05-29T13:04:43;6.07;;;3.70;;
71947;SDS011;63257;55.082;38.772;2023-05-29T13:11:33;5.05;;;3.58;;
71947;SDS011;63257;55.082;38.772;2023-05-29T13:13:58;5.30;;;3.58;;
71947;SDS011;63257;55.082;38.772;2023-05-29T13:16:25;4.97;;;2.70;;
71947;SDS011;63257;55.082;38.772;2023-05-29T13:18:51;5.72;;;4.00;;
71947;SDS011;63257;55.082;38.772;2023-05-29T13:21:16;6.05;;;4.00;;
71947;SDS011;63257;55.082;38.772;2023-05-29T13:23:44;6.40;;;3.75;;
71947;SDS011;63257;55.082;38.772;2023-05-29T13:26:09;6.27;;;4.40;;
71947;SDS011;63257;55.082;38.772;2023-05-29T13:28:35;6.28;;;4.03;;
71947;SDS011;63257;55.082;38.772;2023-05-29T13:31:01;6.18;;;3.92;;
71947;SDS011;63257;55.082;38.772;2023-05-29T13:33:27;7.23;;;3.90;;
71947;SDS011;63257;55.082;38.772;2023-05-29T13:35:53;5.40;;;3.80;;
71947;SDS011;63257;55.082;38.772;2023-05-29T13:38:22;5.17;;;3.73;;
71947;SDS011;63257;55.082;38.772;2023-05-29T13:40:47;5.57;;;4.03;;
71947;SDS011;63257;55.082;38.772;2023-05-29T13:47:26;5.85;;;4.05;;
71947;SDS011;63257;55.082;38.772;2023-05-29T13:49:57;5.33;;;2.50;;
71947;SDS011;63257;55.082;38.772;2023-05-29T13:52:23;4.97;;;3.28;;
71947;SDS011;63257;55.082;38.772;2023-05-29T13:54:49;5.38;;;2.75;;
71947;SDS011;63257;55.082;38.772;2023-05-29T13:57:15;5.25;;;2.47;;
71947;SDS011;63257;55.082;38.772;2023-05-29T13:59:41;5.65;;;2.50;;
71947;SDS011;63257;55.082;38.772;2023-05-29T14:02:07;5.30;;;3.90;;
71947;SDS011;63257;55.082;38.772;2023-05-29T14:04:34;6.80;;;4.10;;
71947;SDS011;63257;55.082;38.772;2023-05-29T14:06:59;5.95;;;4.07;;
71947;SDS011;63257;55.082;38.772;2023-05-29T14:09:25;7.00;;;4.50;;
71947;SDS011;63257;55.082;38.772;2023-05-29T14:11:59;6.03;;;4.50;;
71947;SDS011;63257;55.082;38.772;2023-05-29T14:14:27;4.72;;;3.53;;
71947;SDS011;63257;55.082;38.772;2023-05-29T14:16:53;4.40;;;2.60;;
71947;SDS011;63257;55.082;38.772;2023-05-29T14:19:23;5.35;;;3.80;;
71947;SDS011;63257;55.082;38.772;2023-05-29T14:21:50;5.60;;;2.57;;
71947;SDS011;63257;55.082;38.772;2023-05-29T14:24:16;5.60;;;4.07;;
71947;SDS011;63257;55.082;38.772;2023-05-29T14:26:44;8.15;;;3.72;;
71947;SDS011;63257;55.082;38.772;2023-05-29T14:29:13;6.15;;;3.58;;
71947;SDS011;63257;55.082;38.772;2023-05-29T14:31:42;9.07;;;3.60;;
71947;SDS011;63257;55.082;38.772;2023-05-29T14:34:09;4.80;;;3.63;;
71947;SDS011;63257;55.082;38.772;2023-05-29T14:36:36;5.28;;;3.90;;
71947;SDS011;63257;55.082;38.772;2023-05-29T14:39:03;6.03;;;4.10;;
71947;SDS011;63257;55.082;38.772;2023-05-29T14:41:29;5.15;;;3.42;;
71947;SDS011;63257;55.082;38.772;2023-05-29T14:43:55;5.43;;;3.75;;
71947;SDS011;63257;55.082;38.772;2023-05-29T14:46:24;5.30;;;2.55;;
71947;SDS011;63257;55.082;38.772;2023-05-29T14:48:52;4.70;;;3.70;;
71947;SDS011;63257;55.082;38.772;2023-05-29T14:51:18;7.10;;;3.72;;
71947;SDS011;63257;55.082;38.772;2023-05-29T14:53:46;8.32;;;4.00;;
71947;SDS011;63257;55.082;38.772;2023-05-29T14:56:12;7.57;;;4.10;;
71947;SDS011;63257;55.082;38.772;2023-05-29T14:58:38;5.47;;;3.72;;
71947;SDS011;63257;55.082;38.772;2023-05-29T15:01:04;6.00;;;3.80;;
71947;SDS011;63257;55.082;38.772;2023-05-29T15:03:30;6.10;;;3.53;;
71947;SDS011;63257;55.082;38.772;2023-05-29T15:05:55;5.10;;;3.73;;
71947;SDS011;63257;55.082;38.772;2023-05-29T15:08:22;5.30;;;3.60;;
71947;SDS011;63257;55.082;38.772;2023-05-29T15:15:07;5.70;;;3.70;;
71947;SDS011;63257;55.082;38.772;2023-05-29T15:17:33;4.97;;;3.80;;
71947;SDS011;63257;55.082;38.772;2023-05-29T15:24:18;5.63;;;3.80;;
71947;SDS011;63257;55.082;38.772;2023-05-29T15:26:44;6.45;;;3.70;;
71947;SDS011;63257;55.082;38.772;2023-05-29T15:29:10;6.22;;;3.65;;
71947;SDS011;63257;55.082;38.772;2023-05-29T15:31:36;4.57;;;2.92;;
71947;SDS011;63257;55.082;38.772;2023-05-29T15:34:02;6.40;;;3.57;;
71947;SDS011;63257;55.082;38.772;2023-05-29T15:36:28;6.95;;;3.70;;
71947;SDS011;63257;55.082;38.772;2023-05-29T15:38:54;5.25;;;3.60;;
71947;SDS011;63257;55.082;38.772;2023-05-29T15:41:20;4.63;;;3.58;;
71947;SDS011;63257;55.082;38.772;2023-05-29T15:43:47;5.55;;;3.97;;
71947;SDS011;63257;55.082;38.772;2023-05-29T15:46:12;5.68;;;3.60;;
71947;SDS011;63257;55.082;38.772;2023-05-29T15:48:38;6.53;;;4.00;;
71947;SDS011;63257;55.082;38.772;2023-05-29T15:51:04;5.63;;;3.40;;
71947;SDS011;63257;55.082;38.772;2023-05-29T15:53:30;5.25;;;3.75;;
71947;SDS011;63257;55.082;38.772;2023-05-29T15:55:56;6.13;;;3.22;;
71947;SDS011;63257;55.082;38.772;2023-05-29T15:58:22;6.55;;;3.90;;
71947;SDS011;63257;55.082;38.772;2023-05-29T16:00:52;6.22;;;3.60;;
71947;SDS011;63257;55.082;38.772;2023-05-29T16:07:30;5.93;;;3.40;;